LPOV Airport Information

Runway Information
Runway 18 Length 8005 ft width 148 ft
Elevation 44 ft Threshold 0 ft Heading 176
Runway 36 Length 8005 ft Width 148 ft
Elevation 56 ft Threshold 0 ft Heading 356
Airport Frequencies
Type APP Name APP Frequency 118.6 MHZ
Type TWR Name TWR Frequency 122.1 MHZ
Airport Navaids
Type TACAN Name Ovar Frequency 110600 KHZ
Airport Weather Information & NOTAM
ADDS - METARS form results

(0757 UTC 22 May 2018)
 
METAR text: LPOV 220700Z VRB01KT 9999 FEW016 15/12 Q1013
Conditions at: LPOV (OVAR MIL , PT) observed 0700 UTC 22 May 2018
Temperature: 15.0°C (59°F)
Dewpoint: 12.0°C (54°F) [RH = 82%]
Pressure (altimeter): 29.91 inches Hg (1013.0 mb)
Winds: variable direction winds at 1 MPH (1 knots; 0.5 m/s)
Visibility: 6 or more miles (10+ km)
Ceiling: at least 12,000 feet AGL
Clouds: few clouds at 1600 feet AGL
Weather: no significant weather observed at this time